Buoy 46562

sailwx.info

Track history (hours):
 
Tides and Currents Weather Stations Pressure Air Temp Water Temp Dewpoint Dewpoint Depression Visibility Wind Speed Wind Dir Waves Ship Positions

Drifting buoy 46562

Last reported at 2014-Jul-25 19:00 UTC. Time now 2014-Jul-25 20:41 UTC.
Position N 56°32' W 138°01'.

Water temperature 14.7 ° C

Date/timePositionNaut miles runAvg speedWind from/ knotsBaromVisibWave heightAir tempDewpointWater temp
2014-Jul-25 19:00N 56°32' W 138°01'1 0.3 14.7
2014-Jul-25 17:00N 56°31' W 138°01'1 0.5 14.6
2014-Jul-25 15:00N 56°31' W 137°59'0 0.2 14.7
2014-Jul-25 14:00N 56°31' W 137°59'0 0.1 14.7
2014-Jul-25 13:00N 56°31' W 137°60'0 0.0 14.7
2014-Jul-25 12:00N 56°31' W 137°60'0 0.5 14.7
2014-Jul-25 11:00N 56°30' W 137°59'1 0.6 14.7
2014-Jul-25 10:00N 56°31' W 137°60'2 0.5 14.7
2014-Jul-25 06:00N 56°30' W 137°57'0 0.4 14.7
2014-Jul-25 05:00N 56°30' W 137°56'0 0.0 14.8
2014-Jul-25 04:00N 56°30' W 137°56'0 0.0 14.8
2014-Jul-25 03:00N 56°30' W 137°56'1 0.8 14.8
2014-Jul-25 02:00N 56°30' W 137°57'0 0.1 14.8
2014-Jul-25 00:00N 56°30' W 137°57'0 0.2 14.8
2014-Jul-24 22:00N 56°29' W 137°58'0 0.0 14.8
2014-Jul-24 21:00N 56°29' W 137°58'1 1.4 14.8
2014-Jul-24 20:00N 56°29' W 137°55'1 1.0 14.7
2014-Jul-24 19:00N 56°29' W 137°57'0 0.2 14.7
2014-Jul-24 17:00N 56°29' W 137°57'0 0.1 14.6
2014-Jul-24 16:00N 56°29' W 137°56'0 0.0 14.6
2014-Jul-24 15:00N 56°29' W 137°56'0 0.1 14.6
2014-Jul-24 14:00N 56°29' W 137°56'0 0.5 14.6
2014-Jul-24 13:00N 56°29' W 137°56'1 0.9 14.6
2014-Jul-24 12:00N 56°29' W 137°57'0 0.3 14.6
2014-Jul-24 11:00N 56°29' W 137°57'0 0.1 14.7
2014-Jul-24 10:00N 56°29' W 137°56'0 0.0 14.7
2014-Jul-24 09:00N 56°29' W 137°56'1 0.3 14.7
2014-Jul-24 07:00N 56°29' W 137°56'2 2.1 14.7
2014-Jul-24 06:00N 56°30' W 137°53'1 1.0 14.7
2014-Jul-24 05:00N 56°29' W 137°55'1 0.6 14.7
2014-Jul-24 04:00N 56°29' W 137°54'1 0.5 14.7
2014-Jul-24 02:00N 56°30' W 137°56'0 0.2 14.7
2014-Jul-24 00:00N 56°29' W 137°55'0 0.1 14.7
2014-Jul-23 23:00N 56°29' W 137°55'0 0.4 14.7
2014-Jul-23 22:00N 56°29' W 137°55'0 0.1 14.7
2014-Jul-23 21:00N 56°29' W 137°55'0 0.1 14.7
2014-Jul-23 20:00N 56°29' W 137°55'0 0.2 14.7
2014-Jul-23 18:00N 56°29' W 137°55'0 0.0 14.7
2014-Jul-23 16:00N 56°29' W 137°55'0 0.3 14.7
2014-Jul-23 15:00N 56°29' W 137°56'0 0.2 14.7
2014-Jul-23 14:00N 56°29' W 137°56'0 0.3 14.7
2014-Jul-23 13:00N 56°29' W 137°56'1 0.7 14.7
2014-Jul-23 12:00N 56°28' W 137°55'0 0.0 14.7
2014-Jul-23 10:00N 56°28' W 137°55'1 0.3 14.8
2014-Jul-23 07:00N 56°29' W 137°54'0 0.0 14.8
2014-Jul-23 06:00N 56°29' W 137°54'1 0.6 14.8
2014-Jul-23 05:00N 56°29' W 137°53'0 0.0 14.8
2014-Jul-23 04:00N 56°29' W 137°53'1 0.8 14.8
2014-Jul-23 03:00N 56°29' W 137°54'0 0.5 14.9
2014-Jul-23 02:00N 56°29' W 137°55'0 0.4 14.9
2014-Jul-23 01:00N 56°29' W 137°54'0 0.2 14.9
2014-Jul-23 00:00N 56°29' W 137°54'0 0.1 14.8
2014-Jul-22 23:00N 56°29' W 137°55'0 0.3 14.8
2014-Jul-22 22:00N 56°29' W 137°54'0 0.4 14.7
2014-Jul-22 21:00N 56°29' W 137°54'0 0.2 14.7
2014-Jul-22 20:00N 56°29' W 137°54'0 0.5 14.6
2014-Jul-22 19:00N 56°29' W 137°53'0 0.0 14.5
2014-Jul-22 18:00N 56°29' W 137°53'1 0.6 14.5
2014-Jul-22 16:00N 56°30' W 137°51'1 0.7 14.4
2014-Jul-22 15:00N 56°30' W 137°51'1 0.7 14.4
2014-Jul-22 14:00N 56°31' W 137°52'1 0.7 14.4
2014-Jul-22 13:00N 56°31' W 137°53'0 0.1 14.4
2014-Jul-22 12:00N 56°31' W 137°53'1 0.4 14.4
2014-Jul-22 10:00N 56°31' W 137°54'1 0.4 14.4
2014-Jul-22 07:00N 56°30' W 137°53'1 0.6 14.5
2014-Jul-22 06:00N 56°30' W 137°52'0 0.2 14.5
2014-Jul-22 05:00N 56°30' W 137°52'1 1.0 14.5
2014-Jul-22 04:00N 56°30' W 137°50'0 0.0 14.5
2014-Jul-22 03:00N 56°30' W 137°50'1 0.6 14.5
2014-Jul-22 02:00N 56°31' W 137°50'0 0.4 14.5
2014-Jul-22 01:00N 56°31' W 137°51'0 0.1 14.5
2014-Jul-21 23:00N 56°32' W 137°51'0 0.1 14.4
2014-Jul-21 22:00N 56°32' W 137°51'1 0.3 14.4
2014-Jul-21 20:00N 56°31' W 137°51'0 0.1 14.3
2014-Jul-21 19:00N 56°31' W 137°51'1 1.0 14.2
2014-Jul-21 18:00N 56°31' W 137°50'0 0.0 14.2
2014-Jul-21 17:00N 56°31' W 137°50'1 0.9 14.1
2014-Jul-21 16:00N 56°31' W 137°48'1 0.4 14.1
2014-Jul-21 14:00N 56°31' W 137°48'0 0.2 14.1
2014-Jul-21 12:00N 56°31' W 137°47'1 0.3 14.1
2014-Jul-21 10:00N 56°32' W 137°48'0 0.0 14.1
2014-Jul-21 09:00N 56°32' W 137°48'1 1.2 14.2
2014-Jul-21 08:00N 56°31' W 137°50'0 0.0 14.2
2014-Jul-21 07:00N 56°31' W 137°50'1 1.3 14.2
2014-Jul-21 06:00N 56°31' W 137°47'0 0.0 14.2
2014-Jul-21 05:00N 56°31' W 137°47'0 0.2 14.2
2014-Jul-21 03:00N 56°31' W 137°47'0 0.3 14.2
2014-Jul-21 02:00N 56°31' W 137°47'0 0.4 14.2
2014-Jul-21 01:00N 56°31' W 137°47'0 0.3 14.2
2014-Jul-21 00:00N 56°31' W 137°47'0 0.5 14.2
2014-Jul-20 23:00N 56°31' W 137°48'0 0.5 14.2
2014-Jul-20 22:00N 56°32' W 137°49'1 0.4 14.2
2014-Jul-20 20:00N 56°32' W 137°51'1 0.5 14.2
2014-Jul-20 18:00N 56°31' W 137°51'0 0.0 14.2
2014-Jul-20 16:00N 56°31' W 137°51'1 0.5 14.2
2014-Jul-20 15:00N 56°31' W 137°50'0 0.2 14.2
2014-Jul-20 14:00N 56°31' W 137°50'0 0.2 14.2
2014-Jul-20 12:00N 56°31' W 137°49'1 1.0 14.2
2014-Jul-20 11:00N 56°32' W 137°51'0 0.1 14.2
2014-Jul-20 10:00N 56°32' W 137°51'2 1.8 14.2
2014-Jul-20 09:00N 56°32' W 137°54'1 0.2 14.2
2014-Jul-20 06:00N 56°32' W 137°53'1 0.5 14.3
2014-Jul-20 05:00N 56°32' W 137°54'2 1.7 14.3
2014-Jul-20 04:00N 56°31' W 137°51'1 0.7 14.3
2014-Jul-20 03:00N 56°32' W 137°52'1 0.3 14.3
2014-Jul-20 01:00N 56°32' W 137°51'1 0.5 14.3
2014-Jul-19 23:00N 56°33' W 137°51'1 1.5 14.3
2014-Jul-19 22:00N 56°34' W 137°53'0 0.3 14.2
2014-Jul-19 21:00N 56°34' W 137°54'0 0.3 14.2
2014-Jul-19 20:00N 56°34' W 137°54'0 0.4 14.1
2014-Jul-19 19:00N 56°33' W 137°54'0 0.1 14.1
2014-Jul-19 18:00N 56°33' W 137°54'1 0.2 14.1
2014-Jul-19 15:00N 56°33' W 137°53'1 0.6 14.0
2014-Jul-19 14:00N 56°33' W 137°53'1 0.5 14.0
2014-Jul-19 13:00N 56°34' W 137°52'1 1.0 14.0
2014-Jul-19 12:00N 56°35' W 137°53'2 1.5 14.0
2014-Jul-19 11:00N 56°36' W 137°55'0 0.0 14.0
2014-Jul-19 09:00N 56°36' W 137°55'1 0.6 14.0
2014-Jul-19 07:00N 56°36' W 137°52'1 1.5 14.1
2014-Jul-19 06:00N 56°35' W 137°55'1 0.8 14.1
2014-Jul-19 05:00N 56°35' W 137°53'0 0.0 14.2
2014-Jul-19 04:00N 56°35' W 137°53'1 0.4 14.3
2014-Jul-19 02:00N 56°35' W 137°52'0 0.1 14.4
2014-Jul-19 01:00N 56°35' W 137°52'1 0.7 14.5
2014-Jul-19 00:00N 56°35' W 137°51'1 0.5 14.3
2014-Jul-18 23:00N 56°36' W 137°51'1 1.2 14.2
2014-Jul-18 22:00N 56°36' W 137°53'0 0.0 14.1
2014-Jul-18 21:00N 56°36' W 137°53'1 0.6 14.0
2014-Jul-18 19:00N 56°36' W 137°55'1 0.7 13.9
2014-Jul-18 18:00N 56°36' W 137°55'0 0.0 13.9
2014-Jul-18 17:00N 56°36' W 137°55'1 0.7 13.9
2014-Jul-18 16:00N 56°35' W 137°55'1 1.4 13.8
2014-Jul-18 15:00N 56°35' W 137°53'0 0.4 13.9
2014-Jul-18 14:00N 56°35' W 137°52'1 0.8 13.9
2014-Jul-18 13:00N 56°35' W 137°51'1 0.5 13.9
2014-Jul-18 11:00N 56°36' W 137°51'2 0.8 13.9
2014-Jul-18 09:00N 56°36' W 137°54'1 0.3 13.9
2014-Jul-18 05:00N 56°36' W 137°56'1 1.0 13.9
2014-Jul-18 04:00N 56°36' W 137°54'1 1.3 14.0
2014-Jul-18 03:00N 56°35' W 137°52'1 0.7 14.0
2014-Jul-18 02:00N 56°34' W 137°52'0 0.1 14.1
2014-Jul-18 01:00N 56°34' W 137°52'0 0.5 14.1
2014-Jul-18 00:00N 56°34' W 137°51'0 0.4 14.1
2014-Jul-17 23:00N 56°35' W 137°51'1 0.6 14.1
2014-Jul-17 22:00N 56°35' W 137°51'0 0.0 14.1
2014-Jul-17 21:00N 56°35' W 137°51'1 0.7 14.1
2014-Jul-17 20:00N 56°36' W 137°53'1 0.2 14.1
2014-Jul-17 17:00N 56°35' W 137°53'0 0.0 14.1
2014-Jul-17 16:00N 56°35' W 137°53'0 0.4 14.1
2014-Jul-17 15:00N 56°35' W 137°53'1 0.5 14.1
2014-Jul-17 14:00N 56°35' W 137°53'1 0.6 14.1
2014-Jul-17 13:00N 56°35' W 137°52'2 0.3 14.1
2014-Jul-17 07:00N 56°37' W 137°54'0 0.0 14.1
2014-Jul-17 06:00N 56°37' W 137°54'1 0.4 14.1
2014-Jul-17 03:00N 56°37' W 137°52'0 0.3 14.2
2014-Jul-17 02:00N 56°37' W 137°52'0 0.4 14.2
2014-Jul-17 01:00N 56°37' W 137°52'0 0.3 14.2
2014-Jul-17 00:00N 56°38' W 137°52'1 0.5 14.2
2014-Jul-16 23:00N 56°38' W 137°51'0 0.1 14.1
2014-Jul-16 22:00N 56°38' W 137°52'0 0.4 14.0
2014-Jul-16 21:00N 56°39' W 137°52'1 0.6 13.9
2014-Jul-16 19:00N 56°39' W 137°53'1 0.3 13.8
2014-Jul-16 16:00N 56°40' W 137°53'0 0.2 13.6
2014-Jul-16 14:00N 56°40' W 137°53'0 0.4 13.6
2014-Jul-16 13:00N 56°41' W 137°52'1 0.3 13.6
2014-Jul-16 11:00N 56°41' W 137°53'1 0.8 13.6
2014-Jul-16 10:00N 56°42' W 137°53'2 0.4 13.7
2014-Jul-16 05:00N 56°44' W 137°52'1 0.6 13.7
2014-Jul-16 03:00N 56°45' W 137°53'0 0.2 13.7
2014-Jul-16 02:00N 56°45' W 137°53'0 0.4 13.7
2014-Jul-16 01:00N 56°45' W 137°53'0 0.1 13.7
2014-Jul-16 00:00N 56°45' W 137°53'1 0.8 13.7
2014-Jul-15 23:00N 56°46' W 137°52'0 0.1 13.7
2014-Jul-15 22:00N 56°46' W 137°52'0 0.0 13.7
2014-Jul-15 21:00N 56°46' W 137°52'1 0.6 13.7
2014-Jul-15 20:00N 56°47' W 137°52'0 0.0 13.7
2014-Jul-15 19:00N 56°47' W 137°52'   13.7
Track history (hours):
 
Tides and Currents Weather Stations Pressure Air Temp Water Temp Dewpoint Dewpoint Depression Visibility Wind Speed Wind Dir Waves Ship Positions

Drifting buoy 46562

Last reported at 2014-Jul-25 19:00 UTC. Time now 2014-Jul-25 20:41 UTC.
Position N 56°32' W 138°01'.

Water temperature 14.7 ° C

Date/timePositionNaut miles runAvg speedWind from/ knotsBaromVisibWave heightAir tempDewpointWater temp
2014-Jul-25 19:00N 56°32' W 138°01'1 0.3 14.7
2014-Jul-25 17:00N 56°31' W 138°01'1 0.5 14.6
2014-Jul-25 15:00N 56°31' W 137°59'0 0.2 14.7
2014-Jul-25 14:00N 56°31' W 137°59'0 0.1 14.7
2014-Jul-25 13:00N 56°31' W 137°60'0 0.0 14.7
2014-Jul-25 12:00N 56°31' W 137°60'0 0.5 14.7
2014-Jul-25 11:00N 56°30' W 137°59'1 0.6 14.7
2014-Jul-25 10:00N 56°31' W 137°60'2 0.5 14.7
2014-Jul-25 06:00N 56°30' W 137°57'0 0.4 14.7
2014-Jul-25 05:00N 56°30' W 137°56'0 0.0 14.8
2014-Jul-25 04:00N 56°30' W 137°56'0 0.0 14.8
2014-Jul-25 03:00N 56°30' W 137°56'1 0.8 14.8
2014-Jul-25 02:00N 56°30' W 137°57'0 0.1 14.8
2014-Jul-25 00:00N 56°30' W 137°57'0 0.2 14.8
2014-Jul-24 22:00N 56°29' W 137°58'0 0.0 14.8
2014-Jul-24 21:00N 56°29' W 137°58'1 1.4 14.8
2014-Jul-24 20:00N 56°29' W 137°55'1 1.0 14.7
2014-Jul-24 19:00N 56°29' W 137°57'0 0.2 14.7
2014-Jul-24 17:00N 56°29' W 137°57'0 0.1 14.6
2014-Jul-24 16:00N 56°29' W 137°56'0 0.0 14.6
2014-Jul-24 15:00N 56°29' W 137°56'0 0.1 14.6
2014-Jul-24 14:00N 56°29' W 137°56'0 0.5 14.6
2014-Jul-24 13:00N 56°29' W 137°56'1 0.9 14.6
2014-Jul-24 12:00N 56°29' W 137°57'0 0.3 14.6
2014-Jul-24 11:00N 56°29' W 137°57'0 0.1 14.7
2014-Jul-24 10:00N 56°29' W 137°56'0 0.0 14.7
2014-Jul-24 09:00N 56°29' W 137°56'1 0.3 14.7
2014-Jul-24 07:00N 56°29' W 137°56'2 2.1 14.7
2014-Jul-24 06:00N 56°30' W 137°53'1 1.0 14.7
2014-Jul-24 05:00N 56°29' W 137°55'1 0.6 14.7
2014-Jul-24 04:00N 56°29' W 137°54'1 0.5 14.7
2014-Jul-24 02:00N 56°30' W 137°56'0 0.2 14.7
2014-Jul-24 00:00N 56°29' W 137°55'0 0.1 14.7
2014-Jul-23 23:00N 56°29' W 137°55'0 0.4 14.7
2014-Jul-23 22:00N 56°29' W 137°55'0 0.1 14.7
2014-Jul-23 21:00N 56°29' W 137°55'0 0.1 14.7
2014-Jul-23 20:00N 56°29' W 137°55'0 0.2 14.7
2014-Jul-23 18:00N 56°29' W 137°55'0 0.0 14.7
2014-Jul-23 16:00N 56°29' W 137°55'0 0.3 14.7
2014-Jul-23 15:00N 56°29' W 137°56'0 0.2 14.7
2014-Jul-23 14:00N 56°29' W 137°56'0 0.3 14.7
2014-Jul-23 13:00N 56°29' W 137°56'1 0.7 14.7
2014-Jul-23 12:00N 56°28' W 137°55'0 0.0 14.7
2014-Jul-23 10:00N 56°28' W 137°55'1 0.3 14.8
2014-Jul-23 07:00N 56°29' W 137°54'0 0.0 14.8
2014-Jul-23 06:00N 56°29' W 137°54'1 0.6 14.8
2014-Jul-23 05:00N 56°29' W 137°53'0 0.0 14.8
2014-Jul-23 04:00N 56°29' W 137°53'1 0.8 14.8
2014-Jul-23 03:00N 56°29' W 137°54'0 0.5 14.9
2014-Jul-23 02:00N 56°29' W 137°55'0 0.4 14.9
2014-Jul-23 01:00N 56°29' W 137°54'0 0.2 14.9
2014-Jul-23 00:00N 56°29' W 137°54'0 0.1 14.8
2014-Jul-22 23:00N 56°29' W 137°55'0 0.3 14.8
2014-Jul-22 22:00N 56°29' W 137°54'0 0.4 14.7
2014-Jul-22 21:00N 56°29' W 137°54'0 0.2 14.7
2014-Jul-22 20:00N 56°29' W 137°54'0 0.5 14.6
2014-Jul-22 19:00N 56°29' W 137°53'0 0.0 14.5
2014-Jul-22 18:00N 56°29' W 137°53'1 0.6 14.5
2014-Jul-22 16:00N 56°30' W 137°51'1 0.7 14.4
2014-Jul-22 15:00N 56°30' W 137°51'1 0.7 14.4
2014-Jul-22 14:00N 56°31' W 137°52'1 0.7 14.4
2014-Jul-22 13:00N 56°31' W 137°53'0 0.1 14.4
2014-Jul-22 12:00N 56°31' W 137°53'1 0.4 14.4
2014-Jul-22 10:00N 56°31' W 137°54'1 0.4 14.4
2014-Jul-22 07:00N 56°30' W 137°53'1 0.6 14.5
2014-Jul-22 06:00N 56°30' W 137°52'0 0.2 14.5
2014-Jul-22 05:00N 56°30' W 137°52'1 1.0 14.5
2014-Jul-22 04:00N 56°30' W 137°50'0 0.0 14.5
2014-Jul-22 03:00N 56°30' W 137°50'1 0.6 14.5
2014-Jul-22 02:00N 56°31' W 137°50'0 0.4 14.5
2014-Jul-22 01:00N 56°31' W 137°51'0 0.1 14.5
2014-Jul-21 23:00N 56°32' W 137°51'0 0.1 14.4
2014-Jul-21 22:00N 56°32' W 137°51'1 0.3 14.4
2014-Jul-21 20:00N 56°31' W 137°51'0 0.1 14.3
2014-Jul-21 19:00N 56°31' W 137°51'1 1.0 14.2
2014-Jul-21 18:00N 56°31' W 137°50'0 0.0 14.2
2014-Jul-21 17:00N 56°31' W 137°50'1 0.9 14.1
2014-Jul-21 16:00N 56°31' W 137°48'1 0.4 14.1
2014-Jul-21 14:00N 56°31' W 137°48'0 0.2 14.1
2014-Jul-21 12:00N 56°31' W 137°47'1 0.3 14.1
2014-Jul-21 10:00N 56°32' W 137°48'0 0.0 14.1
2014-Jul-21 09:00N 56°32' W 137°48'1 1.2 14.2
2014-Jul-21 08:00N 56°31' W 137°50'0 0.0 14.2
2014-Jul-21 07:00N 56°31' W 137°50'1 1.3 14.2
2014-Jul-21 06:00N 56°31' W 137°47'0 0.0 14.2
2014-Jul-21 05:00N 56°31' W 137°47'0 0.2 14.2
2014-Jul-21 03:00N 56°31' W 137°47'0 0.3 14.2
2014-Jul-21 02:00N 56°31' W 137°47'0 0.4 14.2
2014-Jul-21 01:00N 56°31' W 137°47'0 0.3 14.2
2014-Jul-21 00:00N 56°31' W 137°47'0 0.5 14.2
2014-Jul-20 23:00N 56°31' W 137°48'0 0.5 14.2
2014-Jul-20 22:00N 56°32' W 137°49'1 0.4 14.2
2014-Jul-20 20:00N 56°32' W 137°51'1 0.5 14.2
2014-Jul-20 18:00N 56°31' W 137°51'0 0.0 14.2
2014-Jul-20 16:00N 56°31' W 137°51'1 0.5 14.2
2014-Jul-20 15:00N 56°31' W 137°50'0 0.2 14.2
2014-Jul-20 14:00N 56°31' W 137°50'0 0.2 14.2
2014-Jul-20 12:00N 56°31' W 137°49'1 1.0 14.2
2014-Jul-20 11:00N 56°32' W 137°51'0 0.1 14.2
2014-Jul-20 10:00N 56°32' W 137°51'2 1.8 14.2
2014-Jul-20 09:00N 56°32' W 137°54'1 0.2 14.2
2014-Jul-20 06:00N 56°32' W 137°53'1 0.5 14.3
2014-Jul-20 05:00N 56°32' W 137°54'2 1.7 14.3
2014-Jul-20 04:00N 56°31' W 137°51'1 0.7 14.3
2014-Jul-20 03:00N 56°32' W 137°52'1 0.3 14.3
2014-Jul-20 01:00N 56°32' W 137°51'1 0.5 14.3
2014-Jul-19 23:00N 56°33' W 137°51'1 1.5 14.3
2014-Jul-19 22:00N 56°34' W 137°53'0 0.3 14.2
2014-Jul-19 21:00N 56°34' W 137°54'0 0.3 14.2
2014-Jul-19 20:00N 56°34' W 137°54'0 0.4 14.1
2014-Jul-19 19:00N 56°33' W 137°54'0 0.1 14.1
2014-Jul-19 18:00N 56°33' W 137°54'1 0.2 14.1
2014-Jul-19 15:00N 56°33' W 137°53'1 0.6 14.0
2014-Jul-19 14:00N 56°33' W 137°53'1 0.5 14.0
2014-Jul-19 13:00N 56°34' W 137°52'1 1.0 14.0
2014-Jul-19 12:00N 56°35' W 137°53'2 1.5 14.0
2014-Jul-19 11:00N 56°36' W 137°55'0 0.0 14.0
2014-Jul-19 09:00N 56°36' W 137°55'1 0.6 14.0
2014-Jul-19 07:00N 56°36' W 137°52'1 1.5 14.1
2014-Jul-19 06:00N 56°35' W 137°55'1 0.8 14.1
2014-Jul-19 05:00N 56°35' W 137°53'0 0.0 14.2
2014-Jul-19 04:00N 56°35' W 137°53'1 0.4 14.3
2014-Jul-19 02:00N 56°35' W 137°52'0 0.1 14.4
2014-Jul-19 01:00N 56°35' W 137°52'1 0.7 14.5
2014-Jul-19 00:00N 56°35' W 137°51'1 0.5 14.3
2014-Jul-18 23:00N 56°36' W 137°51'1 1.2 14.2
2014-Jul-18 22:00N 56°36' W 137°53'0 0.0 14.1
2014-Jul-18 21:00N 56°36' W 137°53'1 0.6 14.0
2014-Jul-18 19:00N 56°36' W 137°55'1 0.7 13.9
2014-Jul-18 18:00N 56°36' W 137°55'0 0.0 13.9
2014-Jul-18 17:00N 56°36' W 137°55'1 0.7 13.9
2014-Jul-18 16:00N 56°35' W 137°55'1 1.4 13.8
2014-Jul-18 15:00N 56°35' W 137°53'0 0.4 13.9
2014-Jul-18 14:00N 56°35' W 137°52'1 0.8 13.9
2014-Jul-18 13:00N 56°35' W 137°51'1 0.5 13.9
2014-Jul-18 11:00N 56°36' W 137°51'2 0.8 13.9
2014-Jul-18 09:00N 56°36' W 137°54'1 0.3 13.9
2014-Jul-18 05:00N 56°36' W 137°56'1 1.0 13.9
2014-Jul-18 04:00N 56°36' W 137°54'1 1.3 14.0
2014-Jul-18 03:00N 56°35' W 137°52'1 0.7 14.0
2014-Jul-18 02:00N 56°34' W 137°52'0 0.1 14.1
2014-Jul-18 01:00N 56°34' W 137°52'0 0.5 14.1
2014-Jul-18 00:00N 56°34' W 137°51'0 0.4 14.1
2014-Jul-17 23:00N 56°35' W 137°51'1 0.6 14.1
2014-Jul-17 22:00N 56°35' W 137°51'0 0.0 14.1
2014-Jul-17 21:00N 56°35' W 137°51'1 0.7 14.1
2014-Jul-17 20:00N 56°36' W 137°53'1 0.2 14.1
2014-Jul-17 17:00N 56°35' W 137°53'0 0.0 14.1
2014-Jul-17 16:00N 56°35' W 137°53'0 0.4 14.1
2014-Jul-17 15:00N 56°35' W 137°53'1 0.5 14.1
2014-Jul-17 14:00N 56°35' W 137°53'1 0.6 14.1
2014-Jul-17 13:00N 56°35' W 137°52'2 0.3 14.1
2014-Jul-17 07:00N 56°37' W 137°54'0 0.0 14.1
2014-Jul-17 06:00N 56°37' W 137°54'1 0.4 14.1
2014-Jul-17 03:00N 56°37' W 137°52'0 0.3 14.2
2014-Jul-17 02:00N 56°37' W 137°52'0 0.4 14.2
2014-Jul-17 01:00N 56°37' W 137°52'0 0.3 14.2
2014-Jul-17 00:00N 56°38' W 137°52'1 0.5 14.2
2014-Jul-16 23:00N 56°38' W 137°51'0 0.1 14.1
2014-Jul-16 22:00N 56°38' W 137°52'0 0.4 14.0
2014-Jul-16 21:00N 56°39' W 137°52'1 0.6 13.9
2014-Jul-16 19:00N 56°39' W 137°53'1 0.3 13.8
2014-Jul-16 16:00N 56°40' W 137°53'0 0.2 13.6
2014-Jul-16 14:00N 56°40' W 137°53'0 0.4 13.6
2014-Jul-16 13:00N 56°41' W 137°52'1 0.3 13.6
2014-Jul-16 11:00N 56°41' W 137°53'1 0.8 13.6
2014-Jul-16 10:00N 56°42' W 137°53'2 0.4 13.7
2014-Jul-16 05:00N 56°44' W 137°52'1 0.6 13.7
2014-Jul-16 03:00N 56°45' W 137°53'0 0.2 13.7
2014-Jul-16 02:00N 56°45' W 137°53'0 0.4 13.7
2014-Jul-16 01:00N 56°45' W 137°53'0 0.1 13.7
2014-Jul-16 00:00N 56°45' W 137°53'1 0.8 13.7
2014-Jul-15 23:00N 56°46' W 137°52'0 0.1 13.7
2014-Jul-15 22:00N 56°46' W 137°52'0 0.0 13.7
2014-Jul-15 21:00N 56°46' W 137°52'1 0.6 13.7
2014-Jul-15 20:00N 56°47' W 137°52'0 0.0 13.7
2014-Jul-15 19:00N 56°47' W 137°52'   13.7

Dump ship's entire track history